Lenorah, Texas
Current Conditions -  °F | °C
As of 3:55 PM on Tuesday 25 Nov 2014 (Local Time) from KBPG Reporting Station
Clear Clear  
Wind Chill: 59°   Ceiling: Unl
Heat Index: 59°   Visibility: 10mi
Dew Point: 20°   Wind: 15mph
Humidity: 23%   Direction: 230°SW
Pressure: 30.23"   Gusts: 23mph
Location:  32.3°N, 101.88°W
Report Text: KBPG 252155Z AUTO 23013G20KT 10SM CLR 15/M06 A3023 RMK AO2 T01481065
Loading
Personal Weather Stations






























Interactive Weather Map New forecast layout! Learn more

10-Day Weather Forecast

Advertisements
Track Severe Weather on mobile